Time,TemperatureF,DewpointF,PressureIn,WindDirection,WindDirectionDegrees,WindSpeedMPH,WindSpeedGustMPH,Humidity,HourlyPrecipIn,Conditions,Clouds,dailyrainin,SoftwareType,DateUTC
2013-12-19 00:00:00,31.0,24.3,29.81,South,186,3.0,3.0,76,0.00,,,0.00,Wunderground v.1.15,2013-12-19 06:00:00,
2013-12-19 00:05:00,30.6,23.9,29.80,South,186,3.0,5.0,76,0.00,,,0.00,Wunderground v.1.15,2013-12-19 06:05:00,
2013-12-19 00:10:00,30.6,24.6,29.80,SSW,192,1.0,5.0,78,0.00,,,0.00,Wunderground v.1.15,2013-12-19 06:10:00,
2013-12-19 00:15:00,30.5,24.1,29.80,SW,217,3.0,5.0,77,0.00,,,0.00,Wunderground v.1.15,2013-12-19 06:15:00,
2013-12-19 00:25:00,29.4,23.7,29.80,SW,217,2.0,5.0,79,0.00,,,0.00,Wunderground v.1.15,2013-12-19 06:25:00,
2013-12-19 00:30:00,28.9,23.2,29.79,SW,227,2.0,5.0,79,0.00,,,0.00,Wunderground v.1.15,2013-12-19 06:30:00,
2013-12-19 00:35:00,28.4,23.0,29.79,SW,232,3.0,5.0,80,0.00,,,0.00,Wunderground v.1.15,2013-12-19 06:35:00,
2013-12-19 00:40:00,28.1,22.7,29.79,SW,232,3.0,3.0,80,0.00,,,0.00,Wunderground v.1.15,2013-12-19 06:40:00,
2013-12-19 00:45:00,28.0,23.2,29.79,SW,232,2.0,5.0,82,0.00,,,0.00,Wunderground v.1.15,2013-12-19 06:45:00,
2013-12-19 00:55:00,28.5,23.7,29.79,SW,232,2.0,5.0,82,0.00,,,0.00,Wunderground v.1.15,2013-12-19 06:55:00,
2013-12-19 01:00:00,28.7,23.9,29.79,SW,232,2.0,5.0,82,0.00,,,0.00,Wunderground v.1.15,2013-12-19 07:00:00,
2013-12-19 01:05:00,28.9,24.1,29.79,SW,232,1.0,5.0,82,0.00,,,0.00,Wunderground v.1.15,2013-12-19 07:05:00,
2013-12-19 01:10:00,29.1,24.3,29.80,SW,232,1.0,5.0,82,0.00,,,0.00,Wunderground v.1.15,2013-12-19 07:10:00,
2013-12-19 01:15:00,29.4,24.6,29.79,SW,232,1.0,5.0,82,0.00,,,0.00,Wunderground v.1.15,2013-12-19 07:15:00,
2013-12-19 01:20:00,29.9,25.1,29.80,SW,232,2.0,2.0,82,0.00,,,0.00,Wunderground v.1.15,2013-12-19 07:20:00,
2013-12-19 01:30:00,30.7,25.3,29.80,SW,232,2.0,2.0,80,0.00,,,0.00,Wunderground v.1.15,2013-12-19 07:30:00,
2013-12-19 01:35:00,30.7,25.3,29.80,SW,232,1.0,5.0,80,0.00,,,0.00,Wunderground v.1.15,2013-12-19 07:35:00,
2013-12-19 01:40:00,30.7,25.3,29.80,SW,232,1.0,5.0,80,0.00,,,0.00,Wunderground v.1.15,2013-12-19 07:40:00,
2013-12-19 01:45:00,30.9,25.5,29.80,SW,236,3.0,5.0,80,0.00,,,0.00,Wunderground v.1.15,2013-12-19 07:45:00,
2013-12-19 01:50:00,31.2,25.7,29.79,WSW,257,4.0,4.0,80,0.00,,,0.00,Wunderground v.1.15,2013-12-19 07:50:00,
2013-12-19 02:00:00,31.9,26.4,29.79,West,278,3.0,6.0,80,0.00,,,0.00,Wunderground v.1.15,2013-12-19 08:00:00,
2013-12-19 02:05:00,32.3,26.5,29.80,NNW,344,5.0,8.0,79,0.00,,,0.00,Wunderground v.1.15,2013-12-19 08:05:00,
2013-12-19 02:10:00,32.6,26.8,29.79,North,355,7.0,7.0,79,0.00,,,0.00,Wunderground v.1.15,2013-12-19 08:10:00,
2013-12-19 02:15:00,32.5,26.7,29.79,North,360,7.0,7.0,79,0.00,,,0.00,Wunderground v.1.15,2013-12-19 08:15:00,
2013-12-19 02:20:00,32.1,26.0,29.80,North,360,6.0,6.0,78,0.00,,,0.00,Wunderground v.1.15,2013-12-19 08:20:00,
2013-12-19 02:25:00,31.9,26.1,29.81,North,360,5.0,6.0,79,0.00,,,0.00,Wunderground v.1.15,2013-12-19 08:25:00,
2013-12-19 02:35:00,33.1,27.6,29.81,NNE,19,7.0,8.0,80,0.00,,,0.00,Wunderground v.1.15,2013-12-19 08:35:00,
2013-12-19 02:40:00,33.9,27.8,29.81,NNE,23,7.0,7.0,78,0.00,,,0.00,Wunderground v.1.15,2013-12-19 08:40:00,
2013-12-19 02:45:00,34.3,27.8,29.82,NNE,21,7.0,7.0,77,0.00,,,0.00,Wunderground v.1.15,2013-12-19 08:45:00,
2013-12-19 02:50:00,34.0,27.5,29.82,NNE,12,6.0,6.0,77,0.00,,,0.00,Wunderground v.1.15,2013-12-19 08:50:00,
2013-12-19 02:55:00,34.1,27.6,29.83,NNE,12,6.0,7.0,77,0.00,,,0.00,Wunderground v.1.15,2013-12-19 08:55:00,
2013-12-19 03:05:00,33.7,27.3,29.82,North,11,5.0,6.0,77,0.00,,,0.00,Wunderground v.1.15,2013-12-19 09:05:00,
2013-12-19 03:10:00,33.3,27.2,29.82,NNE,15,6.0,7.0,78,0.00,,,0.00,Wunderground v.1.15,2013-12-19 09:10:00,
2013-12-19 03:15:00,33.0,26.9,29.82,NNE,19,7.0,7.0,78,0.00,,,0.00,Wunderground v.1.15,2013-12-19 09:15:00,
2013-12-19 03:20:00,32.9,27.1,29.82,NNE,23,7.0,9.0,79,0.00,,,0.00,Wunderground v.1.15,2013-12-19 09:20:00,
2013-12-19 03:25:00,32.8,27.0,29.82,NNE,24,7.0,9.0,79,0.00,,,0.00,Wunderground v.1.15,2013-12-19 09:25:00,
2013-12-19 03:30:00,32.8,27.0,29.82,NNE,24,6.0,7.0,79,0.00,,,0.00,Wunderground v.1.15,2013-12-19 09:30:00,
2013-12-19 03:40:00,32.5,26.7,29.82,NNE,22,6.0,6.0,79,0.00,,,0.00,Wunderground v.1.15,2013-12-19 09:40:00,
2013-12-19 03:45:00,32.4,26.6,29.82,NNE,25,6.0,6.0,79,0.00,,,0.00,Wunderground v.1.15,2013-12-19 09:45:00,
2013-12-19 03:50:00,32.4,26.6,29.82,NNE,23,7.0,7.0,79,0.00,,,0.00,Wunderground v.1.15,2013-12-19 09:50:00,
2013-12-19 03:55:00,32.4,26.6,29.82,NNE,22,6.0,7.0,79,0.00,,,0.00,Wunderground v.1.15,2013-12-19 09:55:00,
2013-12-19 04:00:00,32.1,26.3,29.82,NNE,20,5.0,5.0,79,0.00,,,0.00,Wunderground v.1.15,2013-12-19 10:00:00,
2013-12-19 04:10:00,32.1,26.6,29.81,NNE,17,6.0,7.0,80,0.00,,,0.00,Wunderground v.1.15,2013-12-19 10:10:00,
2013-12-19 04:15:00,32.1,26.6,29.82,NNE,15,6.0,7.0,80,0.00,,,0.00,Wunderground v.1.15,2013-12-19 10:15:00,
2013-12-19 04:20:00,32.1,26.6,29.82,North,11,5.0,5.0,80,0.00,,,0.00,Wunderground v.1.15,2013-12-19 10:20:00,
2013-12-19 04:25:00,31.9,26.4,29.81,NNE,14,5.0,7.0,80,0.00,,,0.00,Wunderground v.1.15,2013-12-19 10:25:00,
2013-12-19 04:30:00,32.1,26.6,29.82,NNE,24,7.0,7.0,80,0.00,,,0.00,Wunderground v.1.15,2013-12-19 10:30:00,
2013-12-19 04:35:00,32.2,26.7,29.82,NNE,24,6.0,7.0,80,0.00,,,0.00,Wunderground v.1.15,2013-12-19 10:35:00,
2013-12-19 04:44:00,32.5,27.0,29.82,NNE,26,7.0,7.0,80,0.00,,,0.00,Wunderground v.1.15,2013-12-19 10:44:00,
2013-12-19 04:49:00,32.6,27.1,29.82,NNE,27,6.0,8.0,80,0.00,,,0.00,Wunderground v.1.15,2013-12-19 10:49:00,
2013-12-19 04:54:00,32.7,27.2,29.82,NNE,26,7.0,9.0,80,0.00,,,0.00,Wunderground v.1.15,2013-12-19 10:54:00,
2013-12-19 04:59:00,32.9,27.1,29.82,NNE,26,8.0,9.0,79,0.00,,,0.00,Wunderground v.1.15,2013-12-19 10:59:00,
2013-12-19 05:04:00,32.9,27.1,29.82,NNE,26,8.0,9.0,79,0.00,,,0.00,Wunderground v.1.15,2013-12-19 11:04:00,
2013-12-19 05:10:00,32.9,27.1,29.81,NNE,19,6.0,6.0,79,0.00,,,0.00,Wunderground v.1.15,2013-12-19 11:10:00,
2013-12-19 05:15:00,33.1,27.3,29.82,NNE,27,7.0,10.0,79,0.00,,,0.00,Wunderground v.1.15,2013-12-19 11:15:00,
2013-12-19 05:20:00,33.2,27.4,29.82,NE,35,8.0,9.0,79,0.00,,,0.00,Wunderground v.1.15,2013-12-19 11:20:00,
2013-12-19 05:25:00,33.4,27.6,29.82,NNE,19,8.0,11.0,79,0.00,,,0.00,Wunderground v.1.15,2013-12-19 11:25:00,
2013-12-19 05:30:00,33.4,27.6,29.82,NNE,32,8.0,8.0,79,0.00,,,0.00,Wunderground v.1.15,2013-12-19 11:30:00,
2013-12-19 05:35:00,33.4,27.6,29.82,NE,34,8.0,8.0,79,0.00,,,0.00,Wunderground v.1.15,2013-12-19 11:35:00,
2013-12-19 05:45:00,33.5,27.7,29.82,NE,42,10.0,10.0,79,0.00,,,0.00,Wunderground v.1.15,2013-12-19 11:45:00,
2013-12-19 05:50:00,33.4,27.6,29.82,NE,36,10.0,10.0,79,0.00,,,0.00,Wunderground v.1.15,2013-12-19 11:50:00,
2013-12-19 05:55:00,33.4,27.6,29.82,NNE,26,9.0,11.0,79,0.00,,,0.00,Wunderground v.1.15,2013-12-19 11:55:00,
2013-12-19 06:00:00,33.4,27.6,29.82,NNE,32,10.0,16.0,79,0.00,,,0.00,Wunderground v.1.15,2013-12-19 12:00:00,
2013-12-19 06:05:00,33.4,27.6,29.82,NE,42,11.0,16.0,79,0.00,,,0.00,Wunderground v.1.15,2013-12-19 12:05:00,
2013-12-19 06:10:00,33.2,27.7,29.82,NE,37,9.0,9.0,80,0.00,,,0.00,Wunderground v.1.15,2013-12-19 12:10:00,
2013-12-19 06:20:00,33.2,27.7,29.83,NNE,29,9.0,9.0,80,0.00,,,0.00,Wunderground v.1.15,2013-12-19 12:20:00,
2013-12-19 06:25:00,33.0,27.5,29.83,NNE,31,10.0,11.0,80,0.00,,,0.00,Wunderground v.1.15,2013-12-19 12:25:00,
2013-12-19 06:30:00,32.8,27.6,29.83,NNE,30,9.0,9.0,81,0.00,,,0.00,Wunderground v.1.15,2013-12-19 12:30:00,
2013-12-19 06:35:00,32.6,27.4,29.83,NNE,20,9.0,12.0,81,0.00,,,0.00,Wunderground v.1.15,2013-12-19 12:35:00,
2013-12-19 06:40:00,32.6,27.4,29.83,NNE,27,9.0,9.0,81,0.00,,,0.00,Wunderground v.1.15,2013-12-19 12:40:00,
2013-12-19 06:50:00,32.9,28.0,29.83,NNE,15,11.0,13.0,82,0.00,,,0.00,Wunderground v.1.15,2013-12-19 12:50:00,
2013-12-19 06:55:00,33.0,28.1,29.83,NNE,27,12.0,13.0,82,0.00,,,0.00,Wunderground v.1.15,2013-12-19 12:55:00,
2013-12-19 07:00:00,32.9,28.0,29.83,NNE,26,11.0,13.0,82,0.00,,,0.00,Wunderground v.1.15,2013-12-19 13:00:00,
2013-12-19 07:05:00,32.9,28.0,29.83,NNE,31,11.0,14.0,82,0.00,,,0.00,Wunderground v.1.15,2013-12-19 13:05:00,
2013-12-19 07:10:00,32.8,27.9,29.83,NNE,27,12.0,12.0,82,0.00,,,0.00,Wunderground v.1.15,2013-12-19 13:10:00,
2013-12-19 07:15:00,32.8,27.9,29.83,NNE,12,12.0,12.0,82,0.00,,,0.00,Wunderground v.1.15,2013-12-19 13:15:00,
2013-12-19 07:25:00,32.8,27.9,29.83,NNE,28,11.0,11.0,82,0.00,,,0.00,Wunderground v.1.15,2013-12-19 13:25:00,
2013-12-19 07:30:00,32.8,27.9,29.83,NNE,19,11.0,12.0,82,0.00,,,0.00,Wunderground v.1.15,2013-12-19 13:30:00,
2013-12-19 07:35:00,32.8,27.9,29.84,NE,40,11.0,12.0,82,0.00,,,0.00,Wunderground v.1.15,2013-12-19 13:35:00,
2013-12-19 07:40:00,32.6,27.7,29.84,NNE,31,11.0,13.0,82,0.00,,,0.00,Wunderground v.1.15,2013-12-19 13:40:00,
2013-12-19 07:45:00,32.5,27.6,29.84,NNE,28,11.0,13.0,82,0.00,,,0.00,Wunderground v.1.15,2013-12-19 13:45:00,
2013-12-19 07:55:00,32.1,27.2,29.84,NE,42,10.0,11.0,82,0.00,,,0.00,Wunderground v.1.15,2013-12-19 13:55:00,
2013-12-19 08:00:00,31.9,27.0,29.84,NE,38,11.0,11.0,82,0.00,,,0.00,Wunderground v.1.15,2013-12-19 14:00:00,
2013-12-19 08:05:00,31.8,27.2,29.85,NNE,29,12.0,12.0,83,0.00,,,0.00,Wunderground v.1.15,2013-12-19 14:05:00,
2013-12-19 08:10:00,31.8,27.2,29.84,NNE,20,12.0,12.0,83,0.00,,,0.00,Wunderground v.1.15,2013-12-19 14:10:00,
2013-12-19 08:15:00,31.5,26.9,29.85,NNE,32,12.0,16.0,83,0.00,,,0.00,Wunderground v.1.15,2013-12-19 14:15:00,
2013-12-19 08:20:00,31.3,26.7,29.84,NE,44,13.0,13.0,83,0.00,,,0.00,Wunderground v.1.15,2013-12-19 14:20:00,
2013-12-19 08:30:00,31.2,26.6,29.86,North,9,10.0,12.0,83,0.00,,,0.00,Wunderground v.1.15,2013-12-19 14:30:00,
2013-12-19 08:35:00,31.2,26.6,29.86,NNE,26,10.0,13.0,83,0.00,,,0.00,Wunderground v.1.15,2013-12-19 14:35:00,
2013-12-19 08:40:00,31.2,26.6,29.87,NE,43,12.0,12.0,83,0.00,,,0.00,Wunderground v.1.15,2013-12-19 14:40:00,
2013-12-19 08:45:00,31.2,26.6,29.87,North,11,11.0,12.0,83,0.00,,,0.00,Wunderground v.1.15,2013-12-19 14:45:00,
2013-12-19 08:50:00,31.2,26.6,29.87,NNE,30,11.0,11.0,83,0.00,,,0.00,Wunderground v.1.15,2013-12-19 14:50:00,
2013-12-19 09:00:00,31.2,26.6,29.86,NNE,20,10.0,13.0,83,0.00,,,0.00,Wunderground v.1.15,2013-12-19 15:00:00,
2013-12-19 09:05:00,31.2,26.6,29.86,North,9,11.0,13.0,83,0.00,,,0.00,Wunderground v.1.15,2013-12-19 15:05:00,
2013-12-19 09:10:00,31.2,26.6,29.86,NNE,22,10.0,10.0,83,0.00,,,0.00,Wunderground v.1.15,2013-12-19 15:10:00,
2013-12-19 09:15:00,30.8,26.2,29.86,NE,52,11.0,13.0,83,0.00,,,0.00,Wunderground v.1.15,2013-12-19 15:15:00,
2013-12-19 09:20:00,30.5,25.7,29.86,NE,46,12.0,17.0,82,0.00,,,0.00,Wunderground v.1.15,2013-12-19 15:20:00,
2013-12-19 09:25:00,29.9,25.4,29.86,NNE,14,14.0,17.0,83,0.00,,,0.00,Wunderground v.1.15,2013-12-19 15:25:00,
2013-12-19 09:30:00,29.9,25.4,29.85,NNE,24,14.0,17.0,83,0.00,,,0.00,Wunderground v.1.15,2013-12-19 15:30:00,
2013-12-19 09:35:00,29.8,25.3,29.86,NE,36,14.0,17.0,83,0.00,,,0.00,Wunderground v.1.15,2013-12-19 15:35:00,
2013-12-19 09:40:00,29.8,25.3,29.86,NNE,28,13.0,13.0,83,0.00,,,0.00,Wunderground v.1.15,2013-12-19 15:40:00,
2013-12-19 09:45:00,30.0,25.5,29.86,NE,48,12.0,13.0,83,0.00,,,0.00,Wunderground v.1.15,2013-12-19 15:45:00,
2013-12-19 09:54:00,29.7,25.2,29.86,NNE,29,11.0,13.0,83,0.00,,,0.00,Wunderground v.1.15,2013-12-19 15:54:00,
2013-12-19 10:00:00,29.8,25.3,29.86,NE,35,12.0,12.0,83,0.00,,,0.00,Wunderground v.1.15,2013-12-19 16:00:00,
2013-12-19 10:05:00,30.2,25.7,29.86,NNE,30,12.0,15.0,83,0.00,,,0.00,Wunderground v.1.15,2013-12-19 16:05:00,
2013-12-19 10:10:00,30.2,25.4,29.85,NNE,13,11.0,11.0,82,0.00,,,0.00,Wunderground v.1.15,2013-12-19 16:10:00,
2013-12-19 10:15:00,30.2,25.1,29.86,NNE,26,12.0,12.0,81,0.00,,,0.00,Wunderground v.1.15,2013-12-19 16:15:00,
2013-12-19 10:20:00,30.2,24.8,29.86,North,5,13.0,18.0,80,0.00,,,0.00,Wunderground v.1.15,2013-12-19 16:20:00,
2013-12-19 10:25:00,30.3,24.9,29.86,NE,42,14.0,18.0,80,0.00,,,0.00,Wunderground v.1.15,2013-12-19 16:25:00,
2013-12-19 10:35:00,30.8,25.1,29.86,North,355,14.0,14.0,79,0.00,,,0.00,Wunderground v.1.15,2013-12-19 16:35:00,
2013-12-19 10:40:00,31.1,25.3,29.86,NE,36,14.0,14.0,79,0.00,,,0.00,Wunderground v.1.15,2013-12-19 16:40:00,
2013-12-19 10:45:00,31.6,25.2,29.86,NNE,13,13.0,16.0,77,0.00,,,0.00,Wunderground v.1.15,2013-12-19 16:45:00,
2013-12-19 10:50:00,30.8,24.4,29.86,NE,46,14.0,17.0,77,0.00,,,0.00,Wunderground v.1.15,2013-12-19 16:50:00,
2013-12-19 10:55:00,30.6,24.6,29.87,NE,34,15.0,17.0,78,0.00,,,0.00,Wunderground v.1.15,2013-12-19 16:55:00,
2013-12-19 11:00:00,30.7,24.7,29.87,NE,46,13.0,13.0,78,0.00,,,0.00,Wunderground v.1.15,2013-12-19 17:00:00,
2013-12-19 11:10:00,30.3,24.0,29.87,NE,44,12.0,12.0,77,0.00,,,0.00,Wunderground v.1.15,2013-12-19 17:10:00,
2013-12-19 11:15:00,30.7,24.3,29.87,NE,49,12.0,17.0,77,0.00,,,0.00,Wunderground v.1.15,2013-12-19 17:15:00,
2013-12-19 11:20:00,30.8,24.7,29.86,NNE,33,13.0,13.0,78,0.00,,,0.00,Wunderground v.1.15,2013-12-19 17:20:00,
2013-12-19 11:25:00,31.1,24.7,29.85,NNE,24,14.0,14.0,77,0.00,,,0.00,Wunderground v.1.15,2013-12-19 17:25:00,
2013-12-19 11:30:00,31.1,24.4,29.85,NNE,27,14.0,14.0,76,0.00,,,0.00,Wunderground v.1.15,2013-12-19 17:30:00,
2013-12-19 11:40:00,31.3,24.6,29.85,NE,39,11.0,15.0,76,0.00,,,0.00,Wunderground v.1.15,2013-12-19 17:40:00,
2013-12-19 11:45:00,31.1,24.4,29.85,NE,50,12.0,19.0,76,0.00,,,0.00,Wunderground v.1.15,2013-12-19 17:45:00,
2013-12-19 11:50:00,31.2,24.2,29.85,NE,46,14.0,14.0,75,0.00,,,0.00,Wunderground v.1.15,2013-12-19 17:50:00,
2013-12-19 11:55:00,31.5,24.5,29.85,NE,46,14.0,14.0,75,0.00,,,0.00,Wunderground v.1.15,2013-12-19 17:55:00,
2013-12-19 12:00:00,31.7,24.7,29.85,NNE,13,13.0,15.0,75,0.00,,,0.00,Wunderground v.1.15,2013-12-19 18:00:00,
2013-12-19 12:05:00,31.6,24.6,29.85,NE,51,13.0,15.0,75,0.00,,,0.00,Wunderground v.1.15,2013-12-19 18:05:00,
2013-12-19 12:15:00,31.9,24.6,29.84,NE,36,12.0,13.0,74,0.00,,,0.00,Wunderground v.1.15,2013-12-19 18:15:00,
2013-12-19 12:20:00,31.6,24.3,29.83,NNE,28,12.0,12.0,74,0.00,,,0.00,Wunderground v.1.15,2013-12-19 18:20:00,
2013-12-19 12:25:00,31.8,24.5,29.83,NE,38,12.0,12.0,74,0.00,,,0.00,Wunderground v.1.15,2013-12-19 18:25:00,
2013-12-19 12:30:00,31.8,24.5,29.83,NNE,29,11.0,12.0,74,0.00,,,0.00,Wunderground v.1.15,2013-12-19 18:30:00,
2013-12-19 12:35:00,31.7,24.0,29.83,NE,44,11.0,12.0,73,0.00,,,0.00,Wunderground v.1.15,2013-12-19 18:35:00,
2013-12-19 12:45:00,31.4,24.1,29.83,NNE,31,12.0,12.0,74,0.00,,,0.00,Wunderground v.1.15,2013-12-19 18:45:00,
2013-12-19 12:50:00,31.6,24.3,29.83,NE,52,12.0,12.0,74,0.00,,,0.00,Wunderground v.1.15,2013-12-19 18:50:00,
2013-12-19 12:55:00,31.2,23.9,29.82,NE,38,12.0,16.0,74,0.00,,,0.00,Wunderground v.1.15,2013-12-19 18:55:00,
2013-12-19 13:00:00,31.2,23.9,29.81,NNE,17,13.0,15.0,74,0.00,,,0.00,Wunderground v.1.15,2013-12-19 19:00:00,
2013-12-19 13:05:00,31.2,23.5,29.81,NNE,26,13.0,17.0,73,0.00,,,0.00,Wunderground v.1.15,2013-12-19 19:05:00,
2013-12-19 13:10:00,30.8,23.2,29.81,NNE,24,14.0,14.0,73,0.00,,,0.00,Wunderground v.1.15,2013-12-19 19:10:00,
2013-12-19 13:20:00,30.4,23.1,29.81,NNE,24,12.0,12.0,74,0.00,,,0.00,Wunderground v.1.15,2013-12-19 19:20:00,
2013-12-19 13:25:00,30.5,23.2,29.81,NE,44,13.0,13.0,74,0.00,,,0.00,Wunderground v.1.15,2013-12-19 19:25:00,
2013-12-19 13:30:00,30.5,23.2,29.81,NE,42,13.0,13.0,74,0.00,,,0.00,Wunderground v.1.15,2013-12-19 19:30:00,
2013-12-19 13:35:00,30.7,23.1,29.81,NNE,28,12.0,13.0,73,0.00,,,0.00,Wunderground v.1.15,2013-12-19 19:35:00,
2013-12-19 13:40:00,30.6,23.0,29.82,North,5,12.0,13.0,73,0.00,,,0.00,Wunderground v.1.15,2013-12-19 19:40:00,
2013-12-19 13:49:00,30.1,22.5,29.82,NE,45,13.0,18.0,73,0.00,,,0.00,Wunderground v.1.15,2013-12-19 19:49:00,
2013-12-19 13:54:00,30.0,22.7,29.81,NE,40,13.0,18.0,74,0.00,,,0.00,Wunderground v.1.15,2013-12-19 19:54:00,
2013-12-19 13:59:00,30.2,22.9,29.81,ENE,63,13.0,13.0,74,0.00,,,0.00,Wunderground v.1.15,2013-12-19 19:59:00,
2013-12-19 14:04:00,30.1,22.5,29.81,NE,44,12.0,13.0,73,0.00,,,0.00,Wunderground v.1.15,2013-12-19 20:04:00,
2013-12-19 14:09:00,30.0,22.4,29.81,North,9,12.0,12.0,73,0.00,,,0.00,Wunderground v.1.15,2013-12-19 20:09:00,
2013-12-19 14:14:00,30.0,22.4,29.81,NNE,13,13.0,13.0,73,0.00,,,0.00,Wunderground v.1.15,2013-12-19 20:14:00,
2013-12-19 14:20:00,30.1,22.5,29.80,North,355,12.0,12.0,73,0.00,,,0.00,Wunderground v.1.15,2013-12-19 20:20:00,
2013-12-19 14:25:00,30.0,22.4,29.79,NE,54,12.0,18.0,73,0.00,,,0.00,Wunderground v.1.15,2013-12-19 20:25:00,
2013-12-19 14:30:00,29.5,21.9,29.80,NE,55,14.0,14.0,73,0.00,,,0.00,Wunderground v.1.15,2013-12-19 20:30:00,
2013-12-19 14:35:00,29.6,22.0,29.81,NE,40,13.0,14.0,73,0.00,,,0.00,Wunderground v.1.15,2013-12-19 20:35:00,
2013-12-19 14:40:00,29.4,21.8,29.80,NNE,21,12.0,16.0,73,0.00,,,0.00,Wunderground v.1.15,2013-12-19 20:40:00,
2013-12-19 14:45:00,29.4,21.8,29.80,NNE,13,12.0,16.0,73,0.00,,,0.00,Wunderground v.1.15,2013-12-19 20:45:00,
2013-12-19 14:55:00,29.4,21.8,29.81,NNE,24,13.0,13.0,73,0.00,,,0.00,Wunderground v.1.15,2013-12-19 20:55:00,
2013-12-19 15:00:00,29.5,21.9,29.81,NNE,17,12.0,19.0,73,0.00,,,0.00,Wunderground v.1.15,2013-12-19 21:00:00,
2013-12-19 15:05:00,29.3,21.4,29.82,NE,50,13.0,19.0,72,0.00,,,0.00,Wunderground v.1.15,2013-12-19 21:05:00,
2013-12-19 15:10:00,29.0,21.1,29.82,NE,40,13.0,13.0,72,0.00,,,0.00,Wunderground v.1.15,2013-12-19 21:10:00,
2013-12-19 15:15:00,28.9,21.3,29.82,NE,54,13.0,13.0,73,0.00,,,0.00,Wunderground v.1.15,2013-12-19 21:15:00,
2013-12-19 15:25:00,28.5,20.9,29.82,NNE,25,12.0,16.0,73,0.00,,,0.00,Wunderground v.1.15,2013-12-19 21:25:00,
2013-12-19 15:30:00,28.3,21.1,29.82,North,9,12.0,12.0,74,0.00,,,0.00,Wunderground v.1.15,2013-12-19 21:30:00,
2013-12-19 15:35:00,28.3,21.1,29.83,NE,49,12.0,14.0,74,0.00,,,0.00,Wunderground v.1.15,2013-12-19 21:35:00,
2013-12-19 15:40:00,28.2,21.0,29.83,ENE,64,13.0,15.0,74,0.00,,,0.00,Wunderground v.1.15,2013-12-19 21:40:00,
2013-12-19 15:45:00,28.1,20.9,29.83,NNE,19,12.0,15.0,74,0.00,,,0.00,Wunderground v.1.15,2013-12-19 21:45:00,
2013-12-19 15:50:00,28.2,21.0,29.83,ENE,65,11.0,11.0,74,0.00,,,0.00,Wunderground v.1.15,2013-12-19 21:50:00,
2013-12-19 16:00:00,28.2,20.7,29.83,NNE,12,11.0,11.0,73,0.00,,,0.00,Wunderground v.1.15,2013-12-19 22:00:00,
2013-12-19 16:05:00,27.9,20.4,29.84,NNE,17,12.0,18.0,73,0.00,,,0.00,Wunderground v.1.15,2013-12-19 22:05:00,
2013-12-19 16:10:00,27.8,20.6,29.84,NNE,25,13.0,13.0,74,0.00,,,0.00,Wunderground v.1.15,2013-12-19 22:10:00,
2013-12-19 16:15:00,27.5,20.0,29.84,NNE,30,13.0,13.0,73,0.00,,,0.00,Wunderground v.1.15,2013-12-19 22:15:00,
2013-12-19 16:20:00,27.1,19.9,29.84,NE,49,13.0,17.0,74,0.00,,,0.00,Wunderground v.1.15,2013-12-19 22:20:00,
2013-12-19 16:30:00,26.7,19.5,29.85,NNE,22,15.0,16.0,74,0.00,,,0.00,Wunderground v.1.15,2013-12-19 22:30:00,
2013-12-19 16:35:00,26.5,19.6,29.85,NNE,27,15.0,16.0,75,0.00,,,0.00,Wunderground v.1.15,2013-12-19 22:35:00,
2013-12-19 16:40:00,26.3,19.8,29.85,NE,43,14.0,16.0,76,0.00,,,0.00,Wunderground v.1.15,2013-12-19 22:40:00,
2013-12-19 16:45:00,26.2,20.0,29.86,NE,36,13.0,16.0,77,0.00,,,0.00,Wunderground v.1.15,2013-12-19 22:45:00,
2013-12-19 16:50:00,26.1,19.9,29.86,NNE,30,13.0,13.0,77,0.00,,,0.00,Wunderground v.1.15,2013-12-19 22:50:00,
2013-12-19 16:55:00,25.8,18.7,29.87,NNW,346,12.0,13.0,74,0.00,,,0.00,Wunderground v.1.15,2013-12-19 22:55:00,
2013-12-19 17:05:00,24.5,17.7,29.88,NNE,24,10.0,10.0,75,0.00,,,0.00,Wunderground v.1.15,2013-12-19 23:05:00,
2013-12-19 17:10:00,24.0,17.5,29.88,North,9,12.0,12.0,76,0.00,,,0.00,Wunderground v.1.15,2013-12-19 23:10:00,
2013-12-19 17:15:00,23.4,17.3,29.88,NNE,24,13.0,13.0,77,0.00,,,0.00,Wunderground v.1.15,2013-12-19 23:15:00,
2013-12-19 17:20:00,23.2,17.4,29.88,North,355,13.0,20.0,78,0.00,,,0.00,Wunderground v.1.15,2013-12-19 23:20:00,
2013-12-19 17:25:00,22.9,17.1,29.88,North,355,13.0,20.0,78,0.00,,,0.00,Wunderground v.1.15,2013-12-19 23:25:00,
2013-12-19 17:35:00,22.4,17.2,29.89,NE,34,14.0,14.0,80,0.00,,,0.00,Wunderground v.1.15,2013-12-19 23:35:00,
2013-12-19 17:40:00,22.2,17.0,29.89,NNW,347,13.0,13.0,80,0.00,,,0.00,Wunderground v.1.15,2013-12-19 23:40:00,
2013-12-19 17:45:00,22.0,17.1,29.90,NNE,31,12.0,14.0,81,0.00,,,0.00,Wunderground v.1.15,2013-12-19 23:45:00,
2013-12-19 17:50:00,21.7,17.1,29.90,NNE,31,14.0,14.0,82,0.00,,,0.00,Wunderground v.1.15,2013-12-19 23:50:00,
2013-12-19 17:55:00,21.7,17.1,29.91,NNE,22,15.0,15.0,82,0.00,,,0.00,Wunderground v.1.15,2013-12-19 23:55:00,
2013-12-19 18:00:00,21.7,17.1,29.91,NNE,29,12.0,12.0,82,0.00,,,0.00,Wunderground v.1.15,2013-12-20 00:00:00,
2013-12-19 18:10:00,21.4,16.2,29.92,North,360,9.0,9.0,80,0.00,,,0.00,Wunderground v.1.15,2013-12-20 00:10:00,
2013-12-19 18:15:00,20.7,15.5,29.92,North,355,10.0,13.0,80,0.00,,,0.00,Wunderground v.1.15,2013-12-20 00:15:00,
2013-12-19 18:20:00,20.3,15.4,29.92,North,355,10.0,10.0,81,0.00,,,0.00,Wunderground v.1.15,2013-12-20 00:20:00,
2013-12-19 18:25:00,19.7,14.8,29.92,NNW,343,11.0,11.0,81,0.00,,,0.00,Wunderground v.1.15,2013-12-20 00:25:00,
2013-12-19 18:30:00,19.4,14.8,29.92,NNW,334,11.0,14.0,82,0.00,,,0.00,Wunderground v.1.15,2013-12-20 00:30:00,
2013-12-19 18:40:00,18.8,14.5,29.93,North,5,11.0,12.0,83,0.00,,,0.00,Wunderground v.1.15,2013-12-20 00:40:00,
2013-12-19 18:45:00,18.4,14.1,29.93,NE,34,11.0,12.0,83,0.00,,,0.00,Wunderground v.1.15,2013-12-20 00:45:00,
2013-12-19 18:50:00,18.0,14.0,29.94,North,355,12.0,12.0,84,0.00,,,0.00,Wunderground v.1.15,2013-12-20 00:50:00,
2013-12-19 18:55:00,18.0,14.3,29.94,NNE,31,12.0,12.0,85,0.00,,,0.00,Wunderground v.1.15,2013-12-20 00:55:00,
2013-12-19 19:00:00,17.9,13.9,29.95,North,5,10.0,10.0,84,0.00,,,0.00,Wunderground v.1.15,2013-12-20 01:00:00,
2013-12-19 19:05:00,17.6,13.9,29.95,NW,323,9.0,10.0,85,0.00,,,0.00,Wunderground v.1.15,2013-12-20 01:05:00,
2013-12-19 19:15:00,17.0,13.3,29.95,North,360,10.0,13.0,85,0.00,,,0.00,Wunderground v.1.15,2013-12-20 01:15:00,
2013-12-19 19:20:00,16.7,13.0,29.96,North,355,11.0,11.0,85,0.00,,,0.00,Wunderground v.1.15,2013-12-20 01:20:00,
2013-12-19 19:25:00,16.7,13.2,29.96,North,355,10.0,13.0,86,0.00,,,0.00,Wunderground v.1.15,2013-12-20 01:25:00,
2013-12-19 19:30:00,16.3,12.6,29.96,NNE,12,10.0,13.0,85,0.00,,,0.00,Wunderground v.1.15,2013-12-20 01:30:00,
2013-12-19 19:35:00,16.2,12.7,29.97,North,355,11.0,13.0,86,0.00,,,0.00,Wunderground v.1.15,2013-12-20 01:35:00,
2013-12-19 19:44:00,15.8,12.4,29.97,NNW,333,11.0,11.0,86,0.00,,,0.00,Wunderground v.1.15,2013-12-20 01:44:00,
2013-12-19 19:49:00,15.7,12.3,29.97,NNE,14,11.0,11.0,86,0.00,,,0.00,Wunderground v.1.15,2013-12-20 01:49:00,
2013-12-19 19:54:00,15.6,12.4,29.97,North,5,10.0,11.0,87,0.00,,,0.00,Wunderground v.1.15,2013-12-20 01:54:00,
2013-12-19 19:59:00,15.4,12.0,29.98,North,355,10.0,15.0,86,0.00,,,0.00,Wunderground v.1.15,2013-12-20 01:59:00,
2013-12-19 20:04:00,15.1,11.9,29.99,NNE,28,10.0,15.0,87,0.00,,,0.00,Wunderground v.1.15,2013-12-20 02:04:00,
2013-12-19 20:09:00,14.8,11.4,29.99,NNW,338,12.0,12.0,86,0.00,,,0.00,Wunderground v.1.15,2013-12-20 02:09:00,
2013-12-19 20:15:00,14.3,10.9,30.00,North,360,11.0,12.0,86,0.00,,,0.00,Wunderground v.1.15,2013-12-20 02:15:00,
2013-12-19 20:20:00,14.0,10.6,30.00,NNW,342,11.0,14.0,86,0.00,,,0.00,Wunderground v.1.15,2013-12-20 02:20:00,
2013-12-19 20:25:00,13.8,10.4,30.00,North,350,12.0,14.0,86,0.00,,,0.00,Wunderground v.1.15,2013-12-20 02:25:00,
2013-12-19 20:30:00,13.8,10.6,30.01,NNW,348,11.0,11.0,87,0.00,,,0.00,Wunderground v.1.15,2013-12-20 02:30:00,
2013-12-19 20:39:00,13.5,10.1,30.01,North,355,11.0,11.0,86,0.00,,,0.00,Wunderground v.1.15,2013-12-20 02:39:00,
2013-12-19 20:45:00,13.4,10.0,30.01,NNW,344,12.0,12.0,86,0.00,,,0.00,Wunderground v.1.15,2013-12-20 02:45:00,
2013-12-19 20:50:00,13.3,9.9,30.01,NNW,327,12.0,12.0,86,0.00,,,0.00,Wunderground v.1.15,2013-12-20 02:50:00,
2013-12-19 20:55:00,13.3,9.9,30.02,NW,325,11.0,12.0,86,0.00,,,0.00,Wunderground v.1.15,2013-12-20 02:55:00,
2013-12-19 21:00:00,13.3,9.9,30.02,NNW,344,11.0,11.0,86,0.00,,,0.00,Wunderground v.1.15,2013-12-20 03:00:00,
2013-12-19 21:05:00,13.1,9.7,30.02,North,360,11.0,13.0,86,0.00,,,0.00,Wunderground v.1.15,2013-12-20 03:05:00,
2013-12-19 21:10:00,13.0,9.9,30.02,NNE,15,12.0,12.0,87,0.00,,,0.00,Wunderground v.1.15,2013-12-20 03:10:00,
2013-12-19 21:20:00,12.9,9.5,30.02,North,355,12.0,12.0,86,0.00,,,0.00,Wunderground v.1.15,2013-12-20 03:20:00,
2013-12-19 21:25:00,12.8,9.7,30.03,North,9,12.0,14.0,87,0.00,,,0.00,Wunderground v.1.15,2013-12-20 03:25:00,
2013-12-19 21:30:00,12.7,9.6,30.02,North,360,12.0,15.0,87,0.00,,,0.00,Wunderground v.1.15,2013-12-20 03:30:00,
2013-12-19 21:35:00,12.7,9.6,30.02,North,355,12.0,15.0,87,0.00,,,0.00,Wunderground v.1.15,2013-12-20 03:35:00,
2013-12-19 21:40:00,12.7,9.6,30.03,North,9,11.0,11.0,87,0.00,,,0.00,Wunderground v.1.15,2013-12-20 03:40:00,
2013-12-19 21:45:00,12.7,9.6,30.03,WNW,296,10.0,11.0,87,0.00,,,0.00,Wunderground v.1.15,2013-12-20 03:45:00,
2013-12-19 21:55:00,12.5,9.4,30.03,North,350,12.0,13.0,87,0.00,,,0.00,Wunderground v.1.15,2013-12-20 03:55:00,
2013-12-19 22:00:00,12.5,9.4,30.03,North,350,12.0,14.0,87,0.00,,,0.00,Wunderground v.1.15,2013-12-20 04:00:00,
2013-12-19 22:05:00,12.6,9.5,30.03,NE,46,11.0,14.0,87,0.00,,,0.00,Wunderground v.1.15,2013-12-20 04:05:00,
2013-12-19 22:10:00,12.6,9.5,30.03,NW,314,10.0,10.0,87,0.00,,,0.00,Wunderground v.1.15,2013-12-20 04:10:00,
2013-12-19 22:15:00,12.6,9.5,30.03,NNE,16,11.0,11.0,87,0.00,,,0.00,Wunderground v.1.15,2013-12-20 04:15:00,
2013-12-19 22:25:00,12.6,9.5,30.03,NNW,341,10.0,11.0,87,0.00,,,0.00,Wunderground v.1.15,2013-12-20 04:25:00,
2013-12-19 22:30:00,12.5,9.4,30.03,North,355,10.0,13.0,87,0.00,,,0.00,Wunderground v.1.15,2013-12-20 04:30:00,
2013-12-19 22:35:00,12.5,9.4,30.03,NNW,340,11.0,13.0,87,0.00,,,0.00,Wunderground v.1.15,2013-12-20 04:35:00,
2013-12-19 22:40:00,12.6,9.7,30.04,NNE,12,10.0,10.0,88,0.00,,,0.00,Wunderground v.1.15,2013-12-20 04:40:00,
2013-12-19 22:45:00,12.4,9.3,30.04,NNW,329,11.0,12.0,87,0.00,,,0.00,Wunderground v.1.15,2013-12-20 04:45:00,
2013-12-19 22:50:00,12.3,9.2,30.04,NNE,19,11.0,16.0,87,0.00,,,0.00,Wunderground v.1.15,2013-12-20 04:50:00,
2013-12-19 23:00:00,12.3,9.4,30.05,NW,325,11.0,11.0,88,0.00,,,0.00,Wunderground v.1.15,2013-12-20 05:00:00,
2013-12-19 23:05:00,12.3,9.2,30.05,North,5,11.0,12.0,87,0.00,,,0.00,Wunderground v.1.15,2013-12-20 05:05:00,
2013-12-19 23:10:00,12.2,9.1,30.05,NNW,340,11.0,11.0,87,0.00,,,0.00,Wunderground v.1.15,2013-12-20 05:10:00,
2013-12-19 23:15:00,12.2,9.1,30.05,NNW,344,12.0,12.0,87,0.00,,,0.00,Wunderground v.1.15,2013-12-20 05:15:00,
2013-12-19 23:20:00,12.2,9.1,30.05,North,350,13.0,13.0,87,0.00,,,0.00,Wunderground v.1.15,2013-12-20 05:20:00,
2013-12-19 23:30:00,12.3,9.2,30.05,NNW,327,12.0,12.0,87,0.00,,,0.00,Wunderground v.1.15,2013-12-20 05:30:00,
2013-12-19 23:35:00,12.3,9.2,30.05,NW,325,13.0,13.0,87,0.00,,,0.00,Wunderground v.1.15,2013-12-20 05:35:00,
2013-12-19 23:40:00,12.3,9.2,30.04,NE,43,11.0,11.0,87,0.00,,,0.00,Wunderground v.1.15,2013-12-20 05:40:00,
2013-12-19 23:45:00,12.3,9.2,30.03,NW,321,11.0,19.0,87,0.00,,,0.00,Wunderground v.1.15,2013-12-20 05:45:00,
2013-12-19 23:50:00,12.3,9.2,30.04,North,360,12.0,18.0,87,0.00,,,0.00,Wunderground v.1.15,2013-12-20 05:50:00,
2013-12-19 23:55:00,12.3,9.2,30.04,NW,309,13.0,18.0,87,0.00,,,0.00,Wunderground v.1.15,2013-12-20 05:55:00,